sensor_id;sensor_type;location;lat;lon;timestamp;temperature;humidity
10875;DHT22;5490;52.200;8.786;2023-04-24T00:00:58;12.30;99.90
10875;DHT22;5490;52.200;8.786;2023-04-24T00:03:26;12.30;99.90
10875;DHT22;5490;52.200;8.786;2023-04-24T00:05:53;12.30;99.90
10875;DHT22;5490;52.200;8.786;2023-04-24T00:08:20;12.30;99.90
10875;DHT22;5490;52.200;8.786;2023-04-24T00:10:48;12.30;99.90
10875;DHT22;5490;52.200;8.786;2023-04-24T00:13:16;12.30;99.90
10875;DHT22;5490;52.200;8.786;2023-04-24T00:15:42;12.20;99.90
10875;DHT22;5490;52.200;8.786;2023-04-24T00:18:09;12.20;99.90
10875;DHT22;5490;52.200;8.786;2023-04-24T00:20:36;12.20;99.90
10875;DHT22;5490;52.200;8.786;2023-04-24T00:23:03;12.20;99.90
10875;DHT22;5490;52.200;8.786;2023-04-24T00:25:29;12.10;99.90
10875;DHT22;5490;52.200;8.786;2023-04-24T00:27:56;12.10;99.90
10875;DHT22;5490;52.200;8.786;2023-04-24T00:30:24;12.00;99.90
10875;DHT22;5490;52.200;8.786;2023-04-24T00:32:51;12.00;99.90
10875;DHT22;5490;52.200;8.786;2023-04-24T00:35:18;12.00;99.90
10875;DHT22;5490;52.200;8.786;2023-04-24T00:37:45;12.00;99.90
10875;DHT22;5490;52.200;8.786;2023-04-24T00:40:12;12.00;99.90
10875;DHT22;5490;52.200;8.786;2023-04-24T00:42:39;12.00;99.90
10875;DHT22;5490;52.200;8.786;2023-04-24T00:45:07;12.00;99.90
10875;DHT22;5490;52.200;8.786;2023-04-24T00:47:35;11.90;99.90
10875;DHT22;5490;52.200;8.786;2023-04-24T00:50:02;12.00;99.90
10875;DHT22;5490;52.200;8.786;2023-04-24T00:52:29;11.90;99.90
10875;DHT22;5490;52.200;8.786;2023-04-24T00:54:57;12.00;99.90
10875;DHT22;5490;52.200;8.786;2023-04-24T00:57:24;12.00;99.90
10875;DHT22;5490;52.200;8.786;2023-04-24T00:59:51;11.90;99.90
10875;DHT22;5490;52.200;8.786;2023-04-24T01:02:19;12.00;99.90
10875;DHT22;5490;52.200;8.786;2023-04-24T01:04:50;12.00;99.90
10875;DHT22;5490;52.200;8.786;2023-04-24T01:07:18;12.00;99.90
10875;DHT22;5490;52.200;8.786;2023-04-24T01:09:48;12.00;99.90
10875;DHT22;5490;52.200;8.786;2023-04-24T01:12:16;12.00;99.90
10875;DHT22;5490;52.200;8.786;2023-04-24T01:14:43;11.90;99.90
10875;DHT22;5490;52.200;8.786;2023-04-24T01:17:10;11.90;99.90
10875;DHT22;5490;52.200;8.786;2023-04-24T01:19:38;11.90;99.90
10875;DHT22;5490;52.200;8.786;2023-04-24T01:22:10;11.80;99.90
10875;DHT22;5490;52.200;8.786;2023-04-24T01:24:38;11.80;99.90
10875;DHT22;5490;52.200;8.786;2023-04-24T01:27:05;11.80;99.90
10875;DHT22;5490;52.200;8.786;2023-04-24T01:29:32;11.80;99.90
10875;DHT22;5490;52.200;8.786;2023-04-24T01:31:59;11.80;99.90
10875;DHT22;5490;52.200;8.786;2023-04-24T01:34:26;11.80;99.90
10875;DHT22;5490;52.200;8.786;2023-04-24T01:36:53;11.90;99.90
10875;DHT22;5490;52.200;8.786;2023-04-24T01:39:22;11.90;99.90
10875;DHT22;5490;52.200;8.786;2023-04-24T01:41:51;11.90;99.90
10875;DHT22;5490;52.200;8.786;2023-04-24T01:44:17;11.90;99.90
10875;DHT22;5490;52.200;8.786;2023-04-24T01:46:44;11.90;99.90
10875;DHT22;5490;52.200;8.786;2023-04-24T01:49:11;12.00;99.90
10875;DHT22;5490;52.200;8.786;2023-04-24T01:51:38;11.90;99.90
10875;DHT22;5490;52.200;8.786;2023-04-24T01:54:04;11.90;99.90
10875;DHT22;5490;52.200;8.786;2023-04-24T01:56:33;11.90;99.90
10875;DHT22;5490;52.200;8.786;2023-04-24T01:59:03;11.90;99.90
10875;DHT22;5490;52.200;8.786;2023-04-24T02:01:33;11.90;99.90
10875;DHT22;5490;52.200;8.786;2023-04-24T02:04:01;11.90;99.90
10875;DHT22;5490;52.200;8.786;2023-04-24T02:06:28;11.90;99.90
10875;DHT22;5490;52.200;8.786;2023-04-24T02:08:56;11.90;99.90
10875;DHT22;5490;52.200;8.786;2023-04-24T02:11:23;11.90;99.90
10875;DHT22;5490;52.200;8.786;2023-04-24T02:13:52;11.90;99.90
10875;DHT22;5490;52.200;8.786;2023-04-24T02:16:18;11.90;99.90
10875;DHT22;5490;52.200;8.786;2023-04-24T02:18:45;11.80;99.90
10875;DHT22;5490;52.200;8.786;2023-04-24T02:21:12;11.80;99.90
10875;DHT22;5490;52.200;8.786;2023-04-24T02:23:39;11.80;99.90
10875;DHT22;5490;52.200;8.786;2023-04-24T02:26:06;11.80;99.90
10875;DHT22;5490;52.200;8.786;2023-04-24T02:28:32;11.80;99.90
10875;DHT22;5490;52.200;8.786;2023-04-24T02:31:00;11.70;99.90
10875;DHT22;5490;52.200;8.786;2023-04-24T02:33:27;11.70;99.90
10875;DHT22;5490;52.200;8.786;2023-04-24T02:35:54;11.60;99.90
10875;DHT22;5490;52.200;8.786;2023-04-24T02:38:21;11.60;99.90
10875;DHT22;5490;52.200;8.786;2023-04-24T02:40:50;11.60;99.90
10875;DHT22;5490;52.200;8.786;2023-04-24T02:43:17;11.50;99.90
10875;DHT22;5490;52.200;8.786;2023-04-24T02:45:45;11.50;99.90
10875;DHT22;5490;52.200;8.786;2023-04-24T02:48:13;11.50;99.90
10875;DHT22;5490;52.200;8.786;2023-04-24T02:50:40;11.40;99.90
10875;DHT22;5490;52.200;8.786;2023-04-24T02:53:06;11.40;99.90
10875;DHT22;5490;52.200;8.786;2023-04-24T02:55:33;11.40;99.90
10875;DHT22;5490;52.200;8.786;2023-04-24T02:58:01;11.40;99.90
10875;DHT22;5490;52.200;8.786;2023-04-24T03:00:28;11.30;99.90
10875;DHT22;5490;52.200;8.786;2023-04-24T03:02:55;11.30;99.90
10875;DHT22;5490;52.200;8.786;2023-04-24T03:05:23;11.30;99.90
10875;DHT22;5490;52.200;8.786;2023-04-24T03:07:50;11.30;99.90
10875;DHT22;5490;52.200;8.786;2023-04-24T03:10:18;11.30;99.90
10875;DHT22;5490;52.200;8.786;2023-04-24T03:12:44;11.30;99.90
10875;DHT22;5490;52.200;8.786;2023-04-24T03:15:11;11.20;99.90
10875;DHT22;5490;52.200;8.786;2023-04-24T03:17:38;11.20;99.90
10875;DHT22;5490;52.200;8.786;2023-04-24T03:20:06;11.20;99.90
10875;DHT22;5490;52.200;8.786;2023-04-24T03:22:34;11.20;99.90
10875;DHT22;5490;52.200;8.786;2023-04-24T03:25:02;11.20;99.90
10875;DHT22;5490;52.200;8.786;2023-04-24T03:27:30;11.10;99.90
10875;DHT22;5490;52.200;8.786;2023-04-24T03:29:57;11.20;99.90
10875;DHT22;5490;52.200;8.786;2023-04-24T03:32:24;11.10;99.90
10875;DHT22;5490;52.200;8.786;2023-04-24T03:34:50;11.20;99.90
10875;DHT22;5490;52.200;8.786;2023-04-24T03:37:17;11.20;99.90
10875;DHT22;5490;52.200;8.786;2023-04-24T03:39:45;11.20;99.90
10875;DHT22;5490;52.200;8.786;2023-04-24T03:42:12;11.20;99.90
10875;DHT22;5490;52.200;8.786;2023-04-24T03:44:38;11.30;99.90
10875;DHT22;5490;52.200;8.786;2023-04-24T03:47:05;11.30;99.90
10875;DHT22;5490;52.200;8.786;2023-04-24T03:49:32;11.30;99.90
10875;DHT22;5490;52.200;8.786;2023-04-24T03:51:58;11.40;99.90
10875;DHT22;5490;52.200;8.786;2023-04-24T03:54:25;11.40;99.90
10875;DHT22;5490;52.200;8.786;2023-04-24T03:56:54;11.50;99.90
10875;DHT22;5490;52.200;8.786;2023-04-24T03:59:20;11.50;99.90
10875;DHT22;5490;52.200;8.786;2023-04-24T04:01:47;11.60;99.90
10875;DHT22;5490;52.200;8.786;2023-04-24T04:04:14;11.70;99.90
10875;DHT22;5490;52.200;8.786;2023-04-24T04:06:40;11.60;99.90
10875;DHT22;5490;52.200;8.786;2023-04-24T04:09:07;11.60;99.90
10875;DHT22;5490;52.200;8.786;2023-04-24T04:11:34;11.70;99.90
10875;DHT22;5490;52.200;8.786;2023-04-24T04:14:03;11.80;99.90
10875;DHT22;5490;52.200;8.786;2023-04-24T04:16:30;11.80;99.90
10875;DHT22;5490;52.200;8.786;2023-04-24T04:18:57;11.80;99.90
10875;DHT22;5490;52.200;8.786;2023-04-24T04:21:24;11.80;99.90
10875;DHT22;5490;52.200;8.786;2023-04-24T04:23:52;11.80;99.90
10875;DHT22;5490;52.200;8.786;2023-04-24T04:26:19;11.80;99.90
10875;DHT22;5490;52.200;8.786;2023-04-24T04:28:46;11.80;99.90
10875;DHT22;5490;52.200;8.786;2023-04-24T04:31:15;11.80;99.90
10875;DHT22;5490;52.200;8.786;2023-04-24T04:33:42;11.70;99.90
10875;DHT22;5490;52.200;8.786;2023-04-24T04:36:09;11.70;99.90
10875;DHT22;5490;52.200;8.786;2023-04-24T04:38:35;11.70;99.90
10875;DHT22;5490;52.200;8.786;2023-04-24T04:41:02;11.70;99.90
10875;DHT22;5490;52.200;8.786;2023-04-24T04:43:29;11.70;99.90
10875;DHT22;5490;52.200;8.786;2023-04-24T04:45:57;11.70;99.90
10875;DHT22;5490;52.200;8.786;2023-04-24T04:48:27;11.70;99.90
10875;DHT22;5490;52.200;8.786;2023-04-24T04:50:54;11.70;99.90
10875;DHT22;5490;52.200;8.786;2023-04-24T04:53:21;11.80;99.90
10875;DHT22;5490;52.200;8.786;2023-04-24T04:55:48;11.80;99.90
10875;DHT22;5490;52.200;8.786;2023-04-24T04:58:14;11.80;99.90
10875;DHT22;5490;52.200;8.786;2023-04-24T05:00:41;11.80;99.90
10875;DHT22;5490;52.200;8.786;2023-04-24T05:03:08;11.80;99.90
10875;DHT22;5490;52.200;8.786;2023-04-24T05:05:36;11.90;99.90
10875;DHT22;5490;52.200;8.786;2023-04-24T05:08:06;12.00;99.90
10875;DHT22;5490;52.200;8.786;2023-04-24T05:10:33;11.90;99.90
10875;DHT22;5490;52.200;8.786;2023-04-24T05:13:00;11.90;99.90
10875;DHT22;5490;52.200;8.786;2023-04-24T05:15:27;12.00;99.90
10875;DHT22;5490;52.200;8.786;2023-04-24T05:17:54;11.90;99.90
10875;DHT22;5490;52.200;8.786;2023-04-24T05:20:21;11.90;99.90
10875;DHT22;5490;52.200;8.786;2023-04-24T05:22:49;11.90;99.90
10875;DHT22;5490;52.200;8.786;2023-04-24T05:25:16;11.90;99.90
10875;DHT22;5490;52.200;8.786;2023-04-24T05:27:43;11.90;99.90
10875;DHT22;5490;52.200;8.786;2023-04-24T05:30:11;11.90;99.90
10875;DHT22;5490;52.200;8.786;2023-04-24T05:32:38;11.80;99.90
10875;DHT22;5490;52.200;8.786;2023-04-24T05:35:05;11.80;99.90
10875;DHT22;5490;52.200;8.786;2023-04-24T05:37:33;11.80;99.90
10875;DHT22;5490;52.200;8.786;2023-04-24T05:40:02;11.80;99.90
10875;DHT22;5490;52.200;8.786;2023-04-24T05:42:30;11.80;99.90
10875;DHT22;5490;52.200;8.786;2023-04-24T05:44:57;11.80;99.90
10875;DHT22;5490;52.200;8.786;2023-04-24T05:47:24;11.80;99.90
10875;DHT22;5490;52.200;8.786;2023-04-24T05:49:52;11.80;99.90
10875;DHT22;5490;52.200;8.786;2023-04-24T05:52:19;11.90;99.90
10875;DHT22;5490;52.200;8.786;2023-04-24T05:54:45;11.90;99.90
10875;DHT22;5490;52.200;8.786;2023-04-24T05:57:13;11.90;99.90
10875;DHT22;5490;52.200;8.786;2023-04-24T05:59:40;11.80;99.90
10875;DHT22;5490;52.200;8.786;2023-04-24T06:02:07;11.90;99.90
10875;DHT22;5490;52.200;8.786;2023-04-24T06:04:36;11.80;99.90
10875;DHT22;5490;52.200;8.786;2023-04-24T06:07:03;11.90;99.90
10875;DHT22;5490;52.200;8.786;2023-04-24T06:09:30;11.90;99.90
10875;DHT22;5490;52.200;8.786;2023-04-24T06:11:56;12.00;99.90
10875;DHT22;5490;52.200;8.786;2023-04-24T06:14:25;12.00;99.90
10875;DHT22;5490;52.200;8.786;2023-04-24T06:16:52;11.90;99.90
10875;DHT22;5490;52.200;8.786;2023-04-24T06:19:19;12.00;99.90
10875;DHT22;5490;52.200;8.786;2023-04-24T06:21:45;12.00;99.90
10875;DHT22;5490;52.200;8.786;2023-04-24T06:24:14;12.00;99.90
10875;DHT22;5490;52.200;8.786;2023-04-24T06:26:41;12.00;99.90
10875;DHT22;5490;52.200;8.786;2023-04-24T06:29:08;12.00;99.90
10875;DHT22;5490;52.200;8.786;2023-04-24T06:31:36;12.10;99.90
10875;DHT22;5490;52.200;8.786;2023-04-24T06:34:03;12.20;99.90
10875;DHT22;5490;52.200;8.786;2023-04-24T06:36:30;12.30;99.90
10875;DHT22;5490;52.200;8.786;2023-04-24T06:38:59;12.30;99.90
10875;DHT22;5490;52.200;8.786;2023-04-24T06:41:27;12.30;99.90
10875;DHT22;5490;52.200;8.786;2023-04-24T06:43:54;12.40;99.90
10875;DHT22;5490;52.200;8.786;2023-04-24T06:46:21;12.40;99.90
10875;DHT22;5490;52.200;8.786;2023-04-24T06:48:50;12.40;99.90
10875;DHT22;5490;52.200;8.786;2023-04-24T06:51:17;12.40;99.90
10875;DHT22;5490;52.200;8.786;2023-04-24T06:53:44;12.40;99.90
10875;DHT22;5490;52.200;8.786;2023-04-24T06:56:10;12.40;99.90
10875;DHT22;5490;52.200;8.786;2023-04-24T06:58:37;12.40;99.90
10875;DHT22;5490;52.200;8.786;2023-04-24T07:01:04;12.50;99.90
10875;DHT22;5490;52.200;8.786;2023-04-24T07:03:31;12.50;99.90
10875;DHT22;5490;52.200;8.786;2023-04-24T07:05:59;12.40;99.90
10875;DHT22;5490;52.200;8.786;2023-04-24T07:08:25;12.40;99.90
10875;DHT22;5490;52.200;8.786;2023-04-24T07:10:52;12.40;99.90
10875;DHT22;5490;52.200;8.786;2023-04-24T07:13:19;12.40;99.90
10875;DHT22;5490;52.200;8.786;2023-04-24T07:15:45;12.40;99.90
10875;DHT22;5490;52.200;8.786;2023-04-24T07:18:14;12.30;99.90
10875;DHT22;5490;52.200;8.786;2023-04-24T07:20:41;12.30;99.90
10875;DHT22;5490;52.200;8.786;2023-04-24T07:23:09;12.30;99.90
10875;DHT22;5490;52.200;8.786;2023-04-24T07:25:35;12.30;99.90
10875;DHT22;5490;52.200;8.786;2023-04-24T07:28:04;12.30;99.90
10875;DHT22;5490;52.200;8.786;2023-04-24T07:30:30;12.20;99.90
10875;DHT22;5490;52.200;8.786;2023-04-24T07:32:58;12.20;99.90
10875;DHT22;5490;52.200;8.786;2023-04-24T07:35:25;12.20;99.90
10875;DHT22;5490;52.200;8.786;2023-04-24T07:37:52;12.20;99.90
10875;DHT22;5490;52.200;8.786;2023-04-24T07:40:20;12.20;99.90
10875;DHT22;5490;52.200;8.786;2023-04-24T07:42:47;12.20;99.90
10875;DHT22;5490;52.200;8.786;2023-04-24T07:45:14;12.10;99.90
10875;DHT22;5490;52.200;8.786;2023-04-24T07:47:42;12.10;99.90
10875;DHT22;5490;52.200;8.786;2023-04-24T07:50:11;12.10;99.90
10875;DHT22;5490;52.200;8.786;2023-04-24T07:52:37;12.20;99.90
10875;DHT22;5490;52.200;8.786;2023-04-24T07:55:05;12.10;99.90
10875;DHT22;5490;52.200;8.786;2023-04-24T07:57:33;12.20;99.90
10875;DHT22;5490;52.200;8.786;2023-04-24T08:00:00;12.10;99.90
10875;DHT22;5490;52.200;8.786;2023-04-24T08:02:27;12.20;99.90
10875;DHT22;5490;52.200;8.786;2023-04-24T08:04:54;12.20;99.90
10875;DHT22;5490;52.200;8.786;2023-04-24T08:07:22;12.30;99.90
10875;DHT22;5490;52.200;8.786;2023-04-24T08:09:49;12.30;99.90
10875;DHT22;5490;52.200;8.786;2023-04-24T08:12:16;12.30;99.90
10875;DHT22;5490;52.200;8.786;2023-04-24T08:14:44;12.40;99.90
10875;DHT22;5490;52.200;8.786;2023-04-24T08:17:11;12.60;99.90
10875;DHT22;5490;52.200;8.786;2023-04-24T08:19:39;12.70;99.90
10875;DHT22;5490;52.200;8.786;2023-04-24T08:22:08;12.70;99.90
10875;DHT22;5490;52.200;8.786;2023-04-24T08:24:35;12.80;99.90
10875;DHT22;5490;52.200;8.786;2023-04-24T08:27:02;12.80;99.90
10875;DHT22;5490;52.200;8.786;2023-04-24T08:29:28;12.90;99.90
10875;DHT22;5490;52.200;8.786;2023-04-24T08:31:57;12.90;99.90
10875;DHT22;5490;52.200;8.786;2023-04-24T08:34:23;12.80;99.90
10875;DHT22;5490;52.200;8.786;2023-04-24T08:36:50;12.80;99.90
10875;DHT22;5490;52.200;8.786;2023-04-24T08:39:17;12.80;99.90
10875;DHT22;5490;52.200;8.786;2023-04-24T08:41:44;12.70;99.90
10875;DHT22;5490;52.200;8.786;2023-04-24T08:44:12;12.70;99.90
10875;DHT22;5490;52.200;8.786;2023-04-24T08:46:43;12.60;99.90
10875;DHT22;5490;52.200;8.786;2023-04-24T08:49:13;12.60;99.90
10875;DHT22;5490;52.200;8.786;2023-04-24T08:51:41;12.60;99.90
10875;DHT22;5490;52.200;8.786;2023-04-24T08:54:09;12.60;99.90
10875;DHT22;5490;52.200;8.786;2023-04-24T08:56:37;12.50;99.90
10875;DHT22;5490;52.200;8.786;2023-04-24T08:59:05;12.50;99.90
10875;DHT22;5490;52.200;8.786;2023-04-24T09:01:33;12.50;99.90
10875;DHT22;5490;52.200;8.786;2023-04-24T09:04:03;12.40;99.90
10875;DHT22;5490;52.200;8.786;2023-04-24T09:06:31;12.50;99.90
10875;DHT22;5490;52.200;8.786;2023-04-24T09:09:00;12.50;99.90
10875;DHT22;5490;52.200;8.786;2023-04-24T09:11:27;12.70;99.90
10875;DHT22;5490;52.200;8.786;2023-04-24T09:13:54;13.00;99.90
10875;DHT22;5490;52.200;8.786;2023-04-24T09:16:22;13.30;99.90
10875;DHT22;5490;52.200;8.786;2023-04-24T09:18:49;13.70;99.90
10875;DHT22;5490;52.200;8.786;2023-04-24T09:21:16;14.00;99.90
10875;DHT22;5490;52.200;8.786;2023-04-24T09:23:44;14.20;99.90
10875;DHT22;5490;52.200;8.786;2023-04-24T09:26:11;14.20;99.90
10875;DHT22;5490;52.200;8.786;2023-04-24T09:28:40;14.20;99.90
10875;DHT22;5490;52.200;8.786;2023-04-24T09:31:09;14.00;99.90
10875;DHT22;5490;52.200;8.786;2023-04-24T09:33:36;13.80;99.90
10875;DHT22;5490;52.200;8.786;2023-04-24T09:36:03;13.70;99.90
10875;DHT22;5490;52.200;8.786;2023-04-24T09:38:32;13.60;99.90
10875;DHT22;5490;52.200;8.786;2023-04-24T09:41:01;13.50;99.90
10875;DHT22;5490;52.200;8.786;2023-04-24T09:43:29;13.40;99.90
10875;DHT22;5490;52.200;8.786;2023-04-24T09:45:57;13.30;99.90
10875;DHT22;5490;52.200;8.786;2023-04-24T09:48:30;13.20;99.90
10875;DHT22;5490;52.200;8.786;2023-04-24T09:50:57;13.10;99.90
10875;DHT22;5490;52.200;8.786;2023-04-24T09:53:25;13.10;99.90
10875;DHT22;5490;52.200;8.786;2023-04-24T09:55:52;13.00;99.90
10875;DHT22;5490;52.200;8.786;2023-04-24T09:58:24;12.90;99.90
10875;DHT22;5490;52.200;8.786;2023-04-24T10:00:53;12.80;99.90
10875;DHT22;5490;52.200;8.786;2023-04-24T10:03:24;12.70;99.90
10875;DHT22;5490;52.200;8.786;2023-04-24T10:05:51;12.70;99.90
10875;DHT22;5490;52.200;8.786;2023-04-24T10:08:18;12.70;99.90
10875;DHT22;5490;52.200;8.786;2023-04-24T10:10:46;12.70;99.90
10875;DHT22;5490;52.200;8.786;2023-04-24T10:13:14;12.60;99.90
10875;DHT22;5490;52.200;8.786;2023-04-24T10:15:42;12.60;99.90
10875;DHT22;5490;52.200;8.786;2023-04-24T10:18:10;12.60;99.90
10875;DHT22;5490;52.200;8.786;2023-04-24T10:20:39;12.60;99.90
10875;DHT22;5490;52.200;8.786;2023-04-24T10:23:06;12.60;99.90
10875;DHT22;5490;52.200;8.786;2023-04-24T10:25:35;12.60;99.90
10875;DHT22;5490;52.200;8.786;2023-04-24T10:28:03;12.70;99.90
10875;DHT22;5490;52.200;8.786;2023-04-24T10:30:31;12.70;99.90
10875;DHT22;5490;52.200;8.786;2023-04-24T10:33:02;12.80;99.90
10875;DHT22;5490;52.200;8.786;2023-04-24T10:35:31;12.80;99.90
10875;DHT22;5490;52.200;8.786;2023-04-24T10:38:01;12.90;99.90
10875;DHT22;5490;52.200;8.786;2023-04-24T10:40:31;12.90;99.90
10875;DHT22;5490;52.200;8.786;2023-04-24T10:43:02;12.90;99.90
10875;DHT22;5490;52.200;8.786;2023-04-24T10:45:31;12.90;99.90
10875;DHT22;5490;52.200;8.786;2023-04-24T10:47:59;12.90;99.90
10875;DHT22;5490;52.200;8.786;2023-04-24T10:50:30;12.90;99.90
10875;DHT22;5490;52.200;8.786;2023-04-24T10:53:12;12.90;99.90
10875;DHT22;5490;52.200;8.786;2023-04-24T10:55:44;12.90;99.90
10875;DHT22;5490;52.200;8.786;2023-04-24T10:58:11;12.80;99.90
10875;DHT22;5490;52.200;8.786;2023-04-24T11:00:40;13.00;99.90
10875;DHT22;5490;52.200;8.786;2023-04-24T11:03:09;13.10;99.90
10875;DHT22;5490;52.200;8.786;2023-04-24T11:05:56;13.30;99.90
10875;DHT22;5490;52.200;8.786;2023-04-24T11:08:28;13.40;99.90
10875;DHT22;5490;52.200;8.786;2023-04-24T11:10:58;13.30;99.90
10875;DHT22;5490;52.200;8.786;2023-04-24T11:13:27;13.30;99.90
10875;DHT22;5490;52.200;8.786;2023-04-24T11:16:14;13.20;99.90
10875;DHT22;5490;52.200;8.786;2023-04-24T11:18:42;13.10;99.90
10875;DHT22;5490;52.200;8.786;2023-04-24T11:21:13;13.10;99.90
10875;DHT22;5490;52.200;8.786;2023-04-24T11:23:42;13.10;99.90
10875;DHT22;5490;52.200;8.786;2023-04-24T11:26:14;13.00;99.90
10875;DHT22;5490;52.200;8.786;2023-04-24T11:28:51;13.00;99.90
10875;DHT22;5490;52.200;8.786;2023-04-24T11:31:38;13.00;99.90
10875;DHT22;5490;52.200;8.786;2023-04-24T11:34:11;12.90;99.90
10875;DHT22;5490;52.200;8.786;2023-04-24T11:36:42;12.80;99.90
10875;DHT22;5490;52.200;8.786;2023-04-24T11:39:09;12.80;99.90
10875;DHT22;5490;52.200;8.786;2023-04-24T11:41:37;12.80;99.90
10875;DHT22;5490;52.200;8.786;2023-04-24T11:44:07;12.70;99.90
10875;DHT22;5490;52.200;8.786;2023-04-24T11:46:34;12.70;99.90
10875;DHT22;5490;52.200;8.786;2023-04-24T11:49:03;12.60;99.90
10875;DHT22;5490;52.200;8.786;2023-04-24T11:51:30;12.60;99.90
10875;DHT22;5490;52.200;8.786;2023-04-24T11:53:59;12.50;99.90
10875;DHT22;5490;52.200;8.786;2023-04-24T11:56:25;12.40;99.90
10875;DHT22;5490;52.200;8.786;2023-04-24T11:58:53;12.50;99.90
10875;DHT22;5490;52.200;8.786;2023-04-24T12:01:20;12.40;99.90
10875;DHT22;5490;52.200;8.786;2023-04-24T12:03:48;12.40;99.90
10875;DHT22;5490;52.200;8.786;2023-04-24T12:06:16;12.40;99.90
10875;DHT22;5490;52.200;8.786;2023-04-24T12:08:46;12.40;99.90
10875;DHT22;5490;52.200;8.786;2023-04-24T12:11:15;12.50;99.90
10875;DHT22;5490;52.200;8.786;2023-04-24T12:13:44;12.50;99.90
10875;DHT22;5490;52.200;8.786;2023-04-24T12:16:11;12.60;99.90
10875;DHT22;5490;52.200;8.786;2023-04-24T12:18:42;12.60;99.90
10875;DHT22;5490;52.200;8.786;2023-04-24T12:21:16;12.60;99.90
10875;DHT22;5490;52.200;8.786;2023-04-24T12:23:43;12.50;99.90
10875;DHT22;5490;52.200;8.786;2023-04-24T12:26:11;12.50;99.90
10875;DHT22;5490;52.200;8.786;2023-04-24T12:28:39;12.40;99.90
10875;DHT22;5490;52.200;8.786;2023-04-24T12:31:06;12.40;99.90
10875;DHT22;5490;52.200;8.786;2023-04-24T12:33:34;12.30;99.90
10875;DHT22;5490;52.200;8.786;2023-04-24T12:36:02;12.10;99.90
10875;DHT22;5490;52.200;8.786;2023-04-24T12:38:29;12.00;99.90
10875;DHT22;5490;52.200;8.786;2023-04-24T12:41:03;11.80;99.90
10875;DHT22;5490;52.200;8.786;2023-04-24T12:43:30;11.80;99.90
10875;DHT22;5490;52.200;8.786;2023-04-24T12:45:59;11.80;99.90
10875;DHT22;5490;52.200;8.786;2023-04-24T12:48:26;11.70;99.90
10875;DHT22;5490;52.200;8.786;2023-04-24T12:50:53;11.60;99.90
10875;DHT22;5490;52.200;8.786;2023-04-24T12:53:20;11.50;99.90
10875;DHT22;5490;52.200;8.786;2023-04-24T12:55:47;11.50;99.90
10875;DHT22;5490;52.200;8.786;2023-04-24T12:58:19;11.50;99.90
10875;DHT22;5490;52.200;8.786;2023-04-24T13:00:45;11.50;99.90
10875;DHT22;5490;52.200;8.786;2023-04-24T13:03:14;11.50;99.90
10875;DHT22;5490;52.200;8.786;2023-04-24T13:05:42;11.50;99.90
10875;DHT22;5490;52.200;8.786;2023-04-24T13:08:10;11.50;99.90
10875;DHT22;5490;52.200;8.786;2023-04-24T13:10:38;11.60;99.90
10875;DHT22;5490;52.200;8.786;2023-04-24T13:13:06;11.60;99.90
10875;DHT22;5490;52.200;8.786;2023-04-24T13:15:32;11.60;99.90
10875;DHT22;5490;52.200;8.786;2023-04-24T13:17:59;11.60;99.90
10875;DHT22;5490;52.200;8.786;2023-04-24T13:20:28;11.60;99.90
10875;DHT22;5490;52.200;8.786;2023-04-24T13:22:54;11.60;99.90
10875;DHT22;5490;52.200;8.786;2023-04-24T13:25:24;11.60;99.90
10875;DHT22;5490;52.200;8.786;2023-04-24T13:27:52;11.60;99.90
10875;DHT22;5490;52.200;8.786;2023-04-24T13:30:24;11.60;99.90
10875;DHT22;5490;52.200;8.786;2023-04-24T13:32:50;11.50;99.90
10875;DHT22;5490;52.200;8.786;2023-04-24T13:35:18;11.50;99.90
10875;DHT22;5490;52.200;8.786;2023-04-24T13:37:55;11.40;99.90
10875;DHT22;5490;52.200;8.786;2023-04-24T13:40:22;11.30;99.90
10875;DHT22;5490;52.200;8.786;2023-04-24T13:42:56;11.20;99.90
10875;DHT22;5490;52.200;8.786;2023-04-24T13:45:23;11.10;99.90
10875;DHT22;5490;52.200;8.786;2023-04-24T13:47:57;11.20;99.90
10875;DHT22;5490;52.200;8.786;2023-04-24T13:50:27;11.10;99.90
10875;DHT22;5490;52.200;8.786;2023-04-24T13:53:12;11.20;99.90
10875;DHT22;5490;52.200;8.786;2023-04-24T13:56:11;11.30;99.90
10875;DHT22;5490;52.200;8.786;2023-04-24T13:58:44;11.30;99.90
10875;DHT22;5490;52.200;8.786;2023-04-24T14:01:19;11.30;99.90
10875;DHT22;5490;52.200;8.786;2023-04-24T14:03:46;11.30;99.90
10875;DHT22;5490;52.200;8.786;2023-04-24T14:06:13;11.30;99.90
10875;DHT22;5490;52.200;8.786;2023-04-24T14:08:41;11.40;99.90
10875;DHT22;5490;52.200;8.786;2023-04-24T14:11:08;11.40;99.90
10875;DHT22;5490;52.200;8.786;2023-04-24T14:13:36;11.50;99.90
10875;DHT22;5490;52.200;8.786;2023-04-24T14:16:04;11.50;99.90
10875;DHT22;5490;52.200;8.786;2023-04-24T14:18:31;11.50;99.90
10875;DHT22;5490;52.200;8.786;2023-04-24T14:21:01;11.60;99.90
10875;DHT22;5490;52.200;8.786;2023-04-24T14:23:28;11.60;99.90
10875;DHT22;5490;52.200;8.786;2023-04-24T14:25:56;11.60;99.90
10875;DHT22;5490;52.200;8.786;2023-04-24T14:28:24;11.70;99.90
10875;DHT22;5490;52.200;8.786;2023-04-24T14:30:53;11.70;99.90
10875;DHT22;5490;52.200;8.786;2023-04-24T14:33:39;11.80;99.90
10875;DHT22;5490;52.200;8.786;2023-04-24T14:36:29;11.80;99.90
10875;DHT22;5490;52.200;8.786;2023-04-24T14:39:07;11.80;99.90
10875;DHT22;5490;52.200;8.786;2023-04-24T14:41:44;11.80;99.90
10875;DHT22;5490;52.200;8.786;2023-04-24T14:44:14;11.90;99.90
10875;DHT22;5490;52.200;8.786;2023-04-24T14:46:44;11.90;99.90
10875;DHT22;5490;52.200;8.786;2023-04-24T14:49:13;11.90;99.90
10875;DHT22;5490;52.200;8.786;2023-04-24T14:51:45;12.00;99.90
10875;DHT22;5490;52.200;8.786;2023-04-24T14:54:23;12.00;99.90
10875;DHT22;5490;52.200;8.786;2023-04-24T14:56:52;12.00;99.90
10875;DHT22;5490;52.200;8.786;2023-04-24T14:59:28;12.00;99.90
10875;DHT22;5490;52.200;8.786;2023-04-24T15:01:56;11.90;99.90
10875;DHT22;5490;52.200;8.786;2023-04-24T15:04:43;11.90;99.90
10875;DHT22;5490;52.200;8.786;2023-04-24T15:07:10;11.90;99.90
10875;DHT22;5490;52.200;8.786;2023-04-24T15:09:37;11.90;99.90
10875;DHT22;5490;52.200;8.786;2023-04-24T15:12:09;11.90;99.90
10875;DHT22;5490;52.200;8.786;2023-04-24T15:14:46;11.90;99.90
10875;DHT22;5490;52.200;8.786;2023-04-24T15:17:13;11.90;99.90
10875;DHT22;5490;52.200;8.786;2023-04-24T15:19:41;11.80;99.90
10875;DHT22;5490;52.200;8.786;2023-04-24T15:22:10;11.80;99.90
10875;DHT22;5490;52.200;8.786;2023-04-24T15:24:37;11.70;99.90
10875;DHT22;5490;52.200;8.786;2023-04-24T15:27:03;11.70;99.90
10875;DHT22;5490;52.200;8.786;2023-04-24T15:29:32;11.60;99.90
10875;DHT22;5490;52.200;8.786;2023-04-24T15:31:58;11.60;99.90
10875;DHT22;5490;52.200;8.786;2023-04-24T15:34:25;11.60;99.90
10875;DHT22;5490;52.200;8.786;2023-04-24T15:36:52;11.60;99.90
10875;DHT22;5490;52.200;8.786;2023-04-24T15:39:22;11.60;99.90
10875;DHT22;5490;52.200;8.786;2023-04-24T15:41:49;11.50;99.90
10875;DHT22;5490;52.200;8.786;2023-04-24T15:44:16;11.50;99.90
10875;DHT22;5490;52.200;8.786;2023-04-24T15:46:47;11.50;99.90
10875;DHT22;5490;52.200;8.786;2023-04-24T15:49:14;11.40;99.90
10875;DHT22;5490;52.200;8.786;2023-04-24T15:51:42;11.40;99.90